QFA140 YSSY-YBCG
Flight info
| Callsign | QFA140 |
|---|---|
| Flight time | N/A |
| Altitude | 35000 |
| Route | TESAT H252 OLSEM Y193 BANDA Y43 GREAV DCT GOMOL |
| Aircraft | B739/M-SDE2E3FGHIRWXY/LB1 |
Departure
| Time | 2026-05-06 03:01 |
|---|---|
| Airport | Sydney Kingsford Smith International Airport (YSSY) |
Arrival
| Time | N/A |
|---|---|
| Airport | Gold Coast Airport (YBCG) |
| Time | Latitude | Longitude | Altitude | Speed | Heading |
|---|---|---|---|---|---|
| 2026-05-06 02:39 | -33.93111 | 151.17714 | 28 ft | 0 kts | 190° |
| 2026-05-06 02:45 | -33.93110 | 151.17714 | 27 ft | 2 kts | 190° |
| 2026-05-06 02:45 | -33.93094 | 151.17719 | 29 ft | 2 kts | 205° |
| 2026-05-06 02:46 | -33.93080 | 151.17729 | 29 ft | 2 kts | 224° |
| 2026-05-06 02:46 | -33.93070 | 151.17744 | 29 ft | 2 kts | 245° |
| 2026-05-06 02:46 | -33.93065 | 151.17763 | 29 ft | 2 kts | 257° |
| 2026-05-06 02:46 | -33.93063 | 151.17780 | 29 ft | 0 kts | 281° |
| 2026-05-06 02:48 | -33.93063 | 151.17778 | 29 ft | 3 kts | 281° |
| 2026-05-06 02:48 | -33.93040 | 151.17711 | 29 ft | 11 kts | 295° |
| 2026-05-06 02:48 | -33.93015 | 151.17626 | 29 ft | 10 kts | 284° |
| 2026-05-06 02:49 | -33.93036 | 151.17550 | 29 ft | 10 kts | 220° |
| 2026-05-06 02:49 | -33.93102 | 151.17528 | 29 ft | 10 kts | 184° |
| 2026-05-06 02:49 | -33.93168 | 151.17542 | 29 ft | 10 kts | 165° |
| 2026-05-06 02:49 | -33.93233 | 151.17557 | 29 ft | 9 kts | 170° |
| 2026-05-06 02:50 | -33.93297 | 151.17571 | 29 ft | 9 kts | 169° |
| 2026-05-06 02:50 | -33.93358 | 151.17585 | 29 ft | 9 kts | 169° |
| 2026-05-06 02:50 | -33.93419 | 151.17590 | 29 ft | 9 kts | 187° |
| 2026-05-06 02:50 | -33.93485 | 151.17587 | 29 ft | 10 kts | 172° |
| 2026-05-06 02:51 | -33.93568 | 151.17608 | 29 ft | 13 kts | 167° |
| 2026-05-06 02:51 | -33.93652 | 151.17643 | 29 ft | 15 kts | 153° |
| 2026-05-06 02:51 | -33.93731 | 151.17683 | 29 ft | 12 kts | 168° |
| 2026-05-06 02:51 | -33.93811 | 151.17706 | 29 ft | 12 kts | 153° |
| 2026-05-06 02:52 | -33.93876 | 151.17766 | 29 ft | 11 kts | 153° |
| 2026-05-06 02:52 | -33.93938 | 151.17789 | 28 ft | 0 kts | 167° |
| 2026-05-06 02:53 | -33.93970 | 151.17798 | 28 ft | 13 kts | 167° |
| 2026-05-06 02:53 | -33.94070 | 151.17823 | 28 ft | 13 kts | 168° |
| 2026-05-06 02:54 | -33.94159 | 151.17847 | 29 ft | 13 kts | 168° |
| 2026-05-06 02:54 | -33.94246 | 151.17869 | 29 ft | 13 kts | 168° |
| 2026-05-06 02:54 | -33.94330 | 151.17891 | 29 ft | 12 kts | 168° |
| 2026-05-06 02:54 | -33.94415 | 151.17907 | 29 ft | 13 kts | 178° |
| 2026-05-06 02:55 | -33.94512 | 151.17887 | 29 ft | 16 kts | 176° |
| 2026-05-06 02:55 | -33.94632 | 151.17911 | 29 ft | 19 kts | 169° |
| 2026-05-06 02:55 | -33.94760 | 151.17946 | 29 ft | 19 kts | 168° |
| 2026-05-06 02:55 | -33.94885 | 151.17976 | 29 ft | 18 kts | 168° |
| 2026-05-06 02:56 | -33.95004 | 151.18009 | 29 ft | 17 kts | 167° |
| 2026-05-06 02:56 | -33.95091 | 151.18085 | 29 ft | 16 kts | 101° |
| 2026-05-06 02:56 | -33.95079 | 151.18211 | 29 ft | 8 kts | 73° |
| 2026-05-06 02:56 | -33.95069 | 151.18279 | 29 ft | 8 kts | 82° |
| 2026-05-06 02:57 | -33.95057 | 151.18345 | 29 ft | 8 kts | 77° |
| 2026-05-06 02:57 | -33.95045 | 151.18408 | 29 ft | 8 kts | 77° |
| 2026-05-06 02:57 | -33.95034 | 151.18470 | 29 ft | 7 kts | 78° |
| 2026-05-06 02:57 | -33.95023 | 151.18528 | 29 ft | 7 kts | 78° |
| 2026-05-06 02:58 | -33.95013 | 151.18586 | 29 ft | 7 kts | 78° |
| 2026-05-06 02:58 | -33.95003 | 151.18642 | 29 ft | 7 kts | 78° |
| 2026-05-06 02:58 | -33.94993 | 151.18698 | 28 ft | 7 kts | 78° |
| 2026-05-06 02:58 | -33.94990 | 151.18714 | 27 ft | 0 kts | 78° |
| 2026-05-06 02:59 | -33.94990 | 151.18716 | 27 ft | 2 kts | 78° |
| 2026-05-06 03:00 | -33.95002 | 151.18822 | 27 ft | 17 kts | 133° |
| 2026-05-06 03:00 | -33.95122 | 151.18874 | 25 ft | 33 kts | 167° |
| 2026-05-06 03:00 | -33.95649 | 151.19008 | 24 ft | 117 kts | 168° |
| 2026-05-06 03:00 | -33.96652 | 151.19270 | 22 ft | 179 kts | 169° |
| 2026-05-06 03:01 | -33.97994 | 151.19581 | 484 ft | 199 kts | 168° |
| 2026-05-06 03:01 | -33.99277 | 151.20060 | 1570 ft | 195 kts | 151° |
| 2026-05-06 03:01 | -34.00229 | 151.21353 | 1931 ft | 225 kts | 110° |
| 2026-05-06 03:01 | -34.00227 | 151.23250 | 2382 ft | 236 kts | 68° |
| 2026-05-06 03:02 | -33.99185 | 151.24762 | 2922 ft | 240 kts | 29° |
| 2026-05-06 03:02 | -33.97573 | 151.25154 | 3549 ft | 241 kts | 351° |
| 2026-05-06 03:02 | -33.95935 | 151.24706 | 4167 ft | 244 kts | 358° |
| 2026-05-06 03:02 | -33.94276 | 151.25078 | 4650 ft | 254 kts | 17° |
| 2026-05-06 03:03 | -33.92544 | 151.25788 | 5074 ft | 269 kts | 21° |
| 2026-05-06 03:03 | -33.90826 | 151.26733 | 5844 ft | 272 kts | 28° |
| 2026-05-06 03:03 | -33.89206 | 151.27926 | 6707 ft | 274 kts | 34° |
| 2026-05-06 03:03 | -33.87679 | 151.29323 | 7480 ft | 277 kts | 39° |
| 2026-05-06 03:04 | -33.86225 | 151.30872 | 8228 ft | 281 kts | 43° |
| 2026-05-06 03:04 | -33.84822 | 151.32533 | 8975 ft | 284 kts | 45° |
| 2026-05-06 03:04 | -33.83453 | 151.34269 | 9701 ft | 287 kts | 47° |
| 2026-05-06 03:04 | -33.82117 | 151.36043 | 10349 ft | 294 kts | 48° |
| 2026-05-06 03:05 | -33.80716 | 151.37955 | 10546 ft | 317 kts | 49° |
| 2026-05-06 03:05 | -33.79227 | 151.40028 | 10721 ft | 337 kts | 46° |
| 2026-05-06 03:05 | -33.77652 | 151.42238 | 10909 ft | 357 kts | 46° |
| 2026-05-06 03:05 | -33.76019 | 151.44547 | 11380 ft | 366 kts | 47° |
| 2026-05-06 03:06 | -33.74360 | 151.46907 | 11913 ft | 373 kts | 48° |
| 2026-05-06 03:06 | -33.72676 | 151.49307 | 12515 ft | 377 kts | 48° |
| 2026-05-06 03:06 | -33.70978 | 151.51724 | 13174 ft | 379 kts | 48° |
| 2026-05-06 03:06 | -33.69292 | 151.54123 | 13787 ft | 382 kts | 47° |
| 2026-05-06 03:07 | -33.67545 | 151.56605 | 14366 ft | 386 kts | 47° |
| 2026-05-06 03:07 | -33.66393 | 151.58238 | 14748 ft | 388 kts | 47° |
| 2026-05-06 03:07 | -33.64549 | 151.60594 | 15340 ft | 389 kts | 39° |
| 2026-05-06 03:07 | -33.62361 | 151.62572 | 15910 ft | 390 kts | 31° |
| 2026-05-06 03:08 | -33.60074 | 151.64339 | 16482 ft | 392 kts | 30° |
| 2026-05-06 03:08 | -33.57754 | 151.66112 | 17003 ft | 396 kts | 30° |
| 2026-05-06 03:08 | -33.55455 | 151.67896 | 17531 ft | 399 kts | 30° |
| 2026-05-06 03:08 | -33.53123 | 151.69730 | 18070 ft | 401 kts | 30° |
| 2026-05-06 03:09 | -33.50775 | 151.71553 | 18561 ft | 403 kts | 27° |
| 2026-05-06 03:09 | -33.48313 | 151.72993 | 19024 ft | 403 kts | 17° |
| 2026-05-06 03:09 | -33.45561 | 151.73966 | 19546 ft | 403 kts | 11° |
| 2026-05-06 03:09 | -33.42826 | 151.74769 | 20050 ft | 405 kts | 10° |
| 2026-05-06 03:10 | -33.40076 | 151.75595 | 20525 ft | 408 kts | 11° |
| 2026-05-06 03:10 | -33.37318 | 151.76455 | 20963 ft | 411 kts | 11° |
| 2026-05-06 03:10 | -33.34545 | 151.77338 | 21368 ft | 415 kts | 11° |
| 2026-05-06 03:10 | -33.31740 | 151.78243 | 21809 ft | 417 kts | 11° |
| 2026-05-06 03:11 | -33.28960 | 151.79144 | 22242 ft | 420 kts | 11° |
| 2026-05-06 03:11 | -33.26133 | 151.80061 | 22666 ft | 422 kts | 11° |
| 2026-05-06 03:11 | -33.23283 | 151.80983 | 23065 ft | 425 kts | 11° |
| 2026-05-06 03:11 | -33.20423 | 151.81907 | 23460 ft | 427 kts | 11° |
| 2026-05-06 03:12 | -33.17537 | 151.82838 | 23844 ft | 430 kts | 11° |
| 2026-05-06 03:12 | -33.14637 | 151.83773 | 24235 ft | 432 kts | 11° |
| 2026-05-06 03:12 | -33.11789 | 151.84690 | 24609 ft | 434 kts | 11° |
| 2026-05-06 03:12 | -33.08788 | 151.85655 | 24974 ft | 437 kts | 11° |
| 2026-05-06 03:13 | -33.05842 | 151.86601 | 25337 ft | 439 kts | 11° |
| 2026-05-06 03:13 | -33.02948 | 151.87530 | 25676 ft | 442 kts | 10° |
| 2026-05-06 03:13 | -32.99971 | 151.88484 | 26030 ft | 444 kts | 10° |
| 2026-05-06 03:13 | -32.96981 | 151.89443 | 26372 ft | 446 kts | 10° |
| 2026-05-06 03:14 | -32.93975 | 151.90407 | 26680 ft | 448 kts | 10° |
| 2026-05-06 03:14 | -32.90949 | 151.91376 | 26981 ft | 451 kts | 10° |
| 2026-05-06 03:14 | -32.87910 | 151.92347 | 27283 ft | 453 kts | 9° |
| 2026-05-06 03:14 | -32.84859 | 151.93322 | 27582 ft | 455 kts | 9° |
| 2026-05-06 03:15 | -32.81833 | 151.94289 | 27863 ft | 457 kts | 9° |
| 2026-05-06 03:15 | -32.78745 | 151.95275 | 28153 ft | 459 kts | 9° |
| 2026-05-06 03:15 | -32.75656 | 151.96260 | 28437 ft | 461 kts | 9° |
| 2026-05-06 03:15 | -32.72545 | 151.97255 | 28711 ft | 463 kts | 9° |
| 2026-05-06 03:16 | -32.69418 | 151.98252 | 28977 ft | 465 kts | 8° |
| 2026-05-06 03:16 | -32.66295 | 151.99247 | 29316 ft | 464 kts | 8° |
| 2026-05-06 03:16 | -32.63211 | 152.00229 | 29748 ft | 462 kts | 8° |
| 2026-05-06 03:16 | -32.60071 | 152.01227 | 30145 ft | 461 kts | 8° |
| 2026-05-06 03:17 | -32.57010 | 152.02200 | 30530 ft | 460 kts | 7° |
| 2026-05-06 03:17 | -32.53926 | 152.03181 | 30900 ft | 458 kts | 7° |
| 2026-05-06 03:17 | -32.50840 | 152.04157 | 31230 ft | 458 kts | 7° |
| 2026-05-06 03:17 | -32.47759 | 152.05131 | 31571 ft | 457 kts | 7° |
| 2026-05-06 03:18 | -32.44683 | 152.06105 | 31894 ft | 457 kts | 7° |